Time;durP1;ratioP1;P1;durP2;ratioP2;P2;SDS_P1;SDS_P2;PMS_P1;PMS_P2;Temp;Humidity;BMP_temperature;BMP_pressure;BME280_temperature;BME280_humidity;BME280_pressure;Samples;Min_cycle;Max_cycle;Signal;HPM_P1;HPM_P2
2021/06/01 00:01:36;;;;;;;0.70;0.60;;;13.60;97.70;;;13.83;100.00;-21057.84;5125585;27;20436;-76
2021/06/01 00:04:06;;;;;;;0.70;0.50;;;13.60;97.00;;;13.72;100.00;-21054.81;5133906;27;20451;-76
2021/06/01 00:06:34;;;;;;;0.70;0.60;;;13.60;96.80;;;13.76;100.00;-21055.91;5134872;27;20494;-75
2021/06/01 00:09:06;;;;;;;0.70;0.60;;;13.70;96.30;;;13.83;100.00;-21057.84;5133572;27;20446;-75
2021/06/01 00:11:35;;;;;;;0.70;0.60;;;13.70;95.00;;;13.70;100.00;-21054.41;5141131;27;20438;-77
2021/06/01 00:14:04;;;;;;;0.70;0.57;;;13.50;95.20;;;13.52;100.00;-21049.44;5116437;27;20984;-75
2021/06/01 00:16:32;;;;;;;0.70;0.60;;;13.40;95.80;;;13.36;100.00;-21045.16;5130133;27;20436;-75
2021/06/01 00:18:59;;;;;;;0.70;0.60;;;13.20;96.40;;;13.16;100.00;-21039.66;5118218;27;20523;-76
2021/06/01 00:21:27;;;;;;;0.70;0.60;;;13.00;97.30;;;13.14;100.00;-21039.22;5133934;27;20409;-76
2021/06/01 00:23:55;;;;;;;0.70;0.60;;;12.90;97.60;;;13.14;100.00;-21039.22;5113132;28;20461;-76
2021/06/01 00:26:24;;;;;;;0.70;0.60;;;13.00;97.90;;;13.20;100.00;-21040.88;5126727;27;20465;-76
2021/06/01 00:28:54;;;;;;;0.70;0.60;;;13.00;97.90;;;13.27;100.00;-21042.81;5131217;27;20478;-75
2021/06/01 00:31:21;;;;;;;0.80;0.60;;;13.10;97.30;;;13.40;100.00;-21046.28;5132963;27;20518;-77
2021/06/01 00:33:49;;;;;;;0.70;0.50;;;13.20;96.10;;;13.41;100.00;-21046.41;5133653;27;20859;-76
2021/06/01 00:36:17;;;;;;;0.90;0.90;;;13.30;95.70;;;13.31;100.00;-21043.66;5133509;27;20413;-76
2021/06/01 00:38:45;;;;;;;0.70;0.60;;;13.10;95.50;;;13.28;100.00;-21043.09;5133370;27;20487;-75
2021/06/01 00:41:13;;;;;;;0.70;0.60;;;13.10;96.10;;;13.12;100.00;-21038.53;5133639;27;20788;-76
2021/06/01 00:43:42;;;;;;;0.70;0.60;;;13.00;96.50;;;13.04;100.00;-21036.63;5132084;27;20477;-76
2021/06/01 00:46:10;;;;;;;0.70;0.50;;;12.90;96.80;;;12.92;100.00;-21033.16;5129240;27;20937;-76
2021/06/01 00:48:41;;;;;;;0.80;0.60;;;12.70;97.30;;;12.82;100.00;-21030.53;5130809;27;20469;-75
2021/06/01 00:51:09;;;;;;;0.70;0.60;;;12.60;98.20;;;12.69;100.00;-21027.09;5134439;27;20413;-75
2021/06/01 00:53:37;;;;;;;0.70;0.60;;;12.50;98.40;;;12.68;100.00;-21026.69;5133103;27;20457;-75
2021/06/01 00:56:07;;;;;;;0.70;0.50;;;12.50;99.50;;;12.54;100.00;-21023.09;5133128;27;20397;-75
2021/06/01 00:58:35;;;;;;;0.70;0.50;;;12.40;99.90;;;12.41;100.00;-21019.50;5128953;27;20443;-75
2021/06/01 01:03:39;;;;;;;0.70;0.50;;;12.20;99.90;;;12.35;100.00;-21017.72;5113482;28;20478;-75
2021/06/01 01:06:18;;;;;;;0.70;0.60;;;12.10;99.90;;;12.21;100.00;-21014.00;5112557;28;20431;-75
2021/06/01 01:08:55;;;;;;;0.70;0.60;;;12.00;99.90;;;12.16;100.00;-21012.59;5112468;27;20464;-76
2021/06/01 01:11:35;;;;;;;0.70;0.60;;;12.00;99.90;;;12.08;100.00;-21010.69;5130039;27;20419;-75
2021/06/01 01:14:07;;;;;;;0.70;0.60;;;11.80;99.90;;;12.00;100.00;-21008.31;5113507;28;21012;-76
2021/06/01 01:16:43;;;;;;;0.70;0.50;;;11.80;99.90;;;11.96;100.00;-21007.34;5129396;28;20498;-76
2021/06/01 01:19:16;;;;;;;0.70;0.60;;;11.80;99.90;;;11.88;100.00;-21005.16;5132528;27;20553;-75
2021/06/01 01:21:50;;;;;;;0.80;0.60;;;11.60;99.90;;;11.84;100.00;-21004.19;5119639;28;20439;-76
2021/06/01 01:24:37;;;;;;;0.70;0.60;;;11.70;99.90;;;11.83;100.00;-21003.91;5120325;28;20471;-76
2021/06/01 01:27:18;;;;;;;0.70;0.60;;;11.60;99.90;;;11.84;100.00;-21004.19;5146203;27;20796;-75
2021/06/01 01:29:49;;;;;;;0.70;0.60;;;11.60;99.90;;;11.81;100.00;-21003.22;5139403;27;20478;-75
2021/06/01 01:32:33;;;;;;;0.73;0.60;;;11.60;99.90;;;11.77;100.00;-21002.25;5139305;27;20802;-75
2021/06/01 01:35:06;;;;;;;0.80;0.60;;;11.60;99.90;;;11.79;100.00;-21002.66;5139275;27;20465;-76
2021/06/01 01:37:36;;;;;;;0.70;0.60;;;11.60;99.90;;;11.80;100.00;-21002.94;5140724;27;20405;-75
2021/06/01 01:40:07;;;;;;;0.70;0.60;;;11.60;99.90;;;11.75;100.00;-21001.56;5139763;27;20401;-75
2021/06/01 01:42:44;;;;;;;0.70;0.60;;;11.60;99.90;;;11.63;100.00;-20998.38;5140965;27;20434;-75
2021/06/01 01:45:19;;;;;;;0.70;0.50;;;11.40;99.90;;;11.49;100.00;-20994.66;5130212;27;20436;-74
2021/06/01 01:50:20;;;;;;;2.50;1.43;;;11.20;99.90;;;11.28;100.00;-20988.84;5131109;27;20436;-75
2021/06/01 01:52:49;;;;;;;0.70;0.60;;;11.10;99.90;;;11.26;100.00;-20988.28;5122442;27;20453;-75
2021/06/01 01:55:19;;;;;;;0.70;0.50;;;11.00;99.90;;;11.15;100.00;-20985.38;5140222;27;20538;-74
2021/06/01 01:57:47;;;;;;;0.70;0.60;;;10.90;99.90;;;11.06;100.00;-20982.91;5140485;27;20430;-75
2021/06/01 02:00:18;;;;;;;0.70;0.50;;;10.80;99.90;;;11.01;100.00;-20981.66;5132414;27;20422;-75
2021/06/01 02:02:47;;;;;;;0.70;0.60;;;10.80;99.90;;;10.97;100.00;-20980.41;5119112;28;20475;-75
2021/06/01 02:05:16;;;;;;;0.70;0.60;;;10.70;99.90;;;10.91;100.00;-20978.88;5118783;28;20429;-75
2021/06/01 02:07:46;;;;;;;0.70;0.60;;;10.70;99.90;;;10.90;100.00;-20978.63;5132479;27;20984;-76
2021/06/01 02:10:14;;;;;;;0.70;0.60;;;10.60;99.90;;;10.80;100.00;-20975.97;5102316;28;20794;-75
2021/06/01 02:12:41;;;;;;;0.70;0.60;;;10.60;99.90;;;10.75;100.00;-20974.59;5122270;27;20559;-76
2021/06/01 02:15:10;;;;;;;0.70;0.60;;;10.50;99.90;;;10.74;100.00;-20974.19;5118326;28;20992;-76
2021/06/01 02:17:39;;;;;;;0.70;0.60;;;10.50;99.90;;;10.64;100.00;-20971.56;5116595;28;20462;-76
2021/06/01 02:20:10;;;;;;;2.40;2.30;;;10.40;99.90;;;10.58;100.00;-20970.03;5149187;27;20436;-77
2021/06/01 02:25:51;;;;;;;0.70;0.60;;;10.30;99.90;;;10.43;100.00;-20965.88;5140299;27;20919;-76
2021/06/01 02:28:26;;;;;;;0.70;0.60;;;10.20;99.90;;;10.38;100.00;-20964.50;5120004;27;20492;-76
2021/06/01 02:31:01;;;;;;;0.70;0.60;;;10.10;99.90;;;10.34;100.00;-20963.41;5111558;27;20768;-75
2021/06/01 02:33:32;;;;;;;0.70;0.60;;;10.10;99.90;;;10.29;100.00;-20962.16;5135994;27;20450;-75
2021/06/01 02:36:01;;;;;;;0.70;0.60;;;10.10;99.90;;;10.27;100.00;-20961.47;5136548;27;20784;-75
2021/06/01 02:38:33;;;;;;;0.70;0.60;;;10.00;99.90;;;10.21;100.00;-20959.78;5132490;27;20516;-75
2021/06/01 02:41:04;;;;;;;0.70;0.67;;;10.00;99.90;;;10.16;100.00;-20958.53;5118596;27;20431;-76
2021/06/01 02:43:33;;;;;;;0.70;0.60;;;9.90;99.90;;;10.13;100.00;-20957.84;5136297;27;20405;-75
2021/06/01 02:46:00;;;;;;;0.70;0.60;;;9.90;99.90;;;10.12;100.00;-20957.56;5131711;27;20444;-76
2021/06/01 02:48:29;;;;;;;0.70;0.60;;;9.90;99.90;;;10.13;100.00;-20957.84;5115135;28;20429;-75
2021/06/01 02:51:13;;;;;;;0.70;0.60;;;9.90;99.90;;;10.17;100.00;-20958.81;5125823;27;20443;-76
2021/06/01 02:53:47;;;;;;;0.70;0.60;;;9.90;99.90;;;10.20;100.00;-20959.50;5116467;28;20465;-75
2021/06/01 02:56:15;;;;;;;0.80;0.60;;;9.90;99.90;;;10.25;100.00;-20960.91;5131958;27;20414;-75
2021/06/01 02:58:46;;;;;;;0.70;0.60;;;9.90;99.90;;;10.22;100.00;-20960.22;5114639;28;20875;-75
2021/06/01 03:01:17;;;;;;;0.70;0.60;;;9.90;99.90;;;10.19;100.00;-20959.25;5129823;27;20425;-75
2021/06/01 03:03:48;;;;;;;0.70;0.60;;;9.90;99.90;;;10.16;100.00;-20958.53;5118366;27;20450;-75
2021/06/01 03:06:16;;;;;;;0.70;0.60;;;9.90;99.90;;;10.19;100.00;-20959.25;5135618;27;20469;-75
2021/06/01 03:08:45;;;;;;;0.70;0.60;;;9.90;99.90;;;10.15;100.00;-20958.28;5135251;27;20457;-76
2021/06/01 03:11:16;;;;;;;0.70;0.60;;;9.90;99.90;;;10.13;100.00;-20957.84;5135287;27;20526;-76
2021/06/01 03:13:45;;;;;;;0.70;0.60;;;9.80;99.90;;;10.08;100.00;-20852.00;5116950;27;20464;-76
2021/06/01 03:16:15;;;;;;;0.70;0.60;;;9.80;99.90;;;10.07;100.00;-20789.03;5129572;27;20441;-75
2021/06/01 03:18:43;;;;;;;0.70;0.60;;;9.80;99.90;;;10.17;100.00;-20851.84;5114268;28;20417;-76
2021/06/01 03:21:13;;;;;;;0.70;0.60;;;9.80;99.90;;;10.15;100.00;-20811.38;5126421;27;20804;-76
2021/06/01 03:23:42;;;;;;;0.70;0.60;;;9.80;99.90;;;10.09;100.00;-20699.63;5134447;27;20460;-76
2021/06/01 03:26:12;;;;;;;0.70;0.60;;;9.80;99.90;;;10.09;100.00;-20559.47;5134824;27;20467;-76
2021/06/01 03:28:40;;;;;;;0.70;0.60;;;9.80;99.90;;;10.05;100.00;-20473.31;5136166;27;20424;-76
2021/06/01 03:31:10;;;;;;;0.70;0.60;;;9.80;99.90;;;9.99;100.00;-20274.00;5117278;27;20463;-75
2021/06/01 03:33:39;;;;;;;0.70;0.53;;;9.70;99.90;;;9.96;100.00;-19875.16;5133816;27;20416;-76
2021/06/01 03:36:08;;;;;;;0.70;0.60;;;9.70;99.90;;;9.93;100.00;-19554.16;5135855;27;20911;-76
2021/06/01 03:38:37;;;;;;;0.70;0.60;;;9.60;99.90;;;9.90;100.00;-19107.88;5135693;27;20476;-75
2021/06/01 03:41:05;;;;;;;0.70;0.60;;;9.60;99.90;;;9.89;100.00;-18822.28;5134448;27;20531;-75
2021/06/01 03:43:34;;;;;;;0.70;0.70;;;9.60;99.90;;;9.89;100.00;-18667.19;5151661;27;20413;-76
2021/06/01 03:46:01;;;;;;;0.70;0.60;;;9.60;99.90;;;9.92;100.00;-17886.72;5117778;27;20429;-75
2021/06/01 03:48:29;;;;;;;0.70;0.60;;;9.70;99.90;;;9.92;100.00;-17243.13;5125401;27;20941;-76
2021/06/01 03:50:56;;;;;;;0.70;0.60;;;9.60;99.90;;;9.91;100.00;-16924.69;5123899;27;20516;-75
2021/06/01 03:53:27;;;;;;;0.70;0.60;;;9.60;99.90;;;9.90;100.00;-16518.69;5117474;27;20526;-75
2021/06/01 03:55:55;;;;;;;0.70;0.50;;;9.60;99.90;;;9.90;100.00;-15919.94;5133822;27;20472;-76
2021/06/01 03:58:23;;;;;;;0.70;0.60;;;9.60;99.90;;;9.89;100.00;-15586.59;5135234;27;20412;-76
2021/06/01 04:00:52;;;;;;;0.70;0.60;;;9.60;99.90;;;9.88;100.00;-15315.69;5135250;27;20464;-75
2021/06/01 04:03:20;;;;;;;0.70;0.60;;;9.60;99.90;;;9.93;100.00;-15005.91;5109279;28;20459;-76
2021/06/01 04:05:47;;;;;;;0.70;0.60;;;9.60;99.90;;;10.03;100.00;-14463.53;5096798;28;20468;-76
2021/06/01 04:08:16;;;;;;;0.70;0.60;;;9.80;99.90;;;10.07;100.00;-13930.09;5133184;27;20529;-76
2021/06/01 04:10:44;;;;;;;0.70;0.60;;;9.70;99.90;;;10.09;100.00;-13581.84;5116832;27;20780;-76
2021/06/01 04:13:12;;;;;;;0.70;0.60;;;9.80;99.90;;;10.15;100.00;-13382.09;5134841;27;20918;-76
2021/06/01 04:15:41;;;;;;;0.70;0.60;;;9.90;99.90;;;10.26;100.00;-13571.94;5132424;27;20466;-75
2021/06/01 04:18:10;;;;;;;0.77;0.63;;;9.90;99.90;;;10.34;100.00;-14255.50;5115521;27;20816;-75
2021/06/01 04:20:38;;;;;;;0.70;0.60;;;9.90;99.90;;;10.38;100.00;-14823.19;5133599;27;20436;-75
2021/06/01 04:23:05;;;;;;;0.70;0.60;;;10.00;99.90;;;10.43;100.00;-14786.38;5132319;27;20452;-75
2021/06/01 04:25:33;;;;;;;0.70;0.60;;;10.10;99.90;;;10.46;100.00;-14924.88;5134110;27;21005;-75
2021/06/01 04:28:01;;;;;;;0.70;0.70;;;10.10;99.90;;;10.48;100.00;-14882.56;5120908;27;20434;-75
2021/06/01 04:30:28;;;;;;;0.70;0.60;;;10.20;99.90;;;10.51;100.00;-14456.50;5116778;27;20421;-75
2021/06/01 04:32:56;;;;;;;0.70;0.60;;;10.20;99.90;;;10.56;100.00;-14462.44;5129568;27;20994;-76
2021/06/01 04:35:26;;;;;;;0.70;0.60;;;10.30;99.90;;;10.62;100.00;-14255.16;5129954;27;20476;-76
2021/06/01 04:37:54;;;;;;;0.70;0.60;;;10.30;99.90;;;10.69;100.00;-14175.84;5096423;28;20512;-75
2021/06/01 04:40:21;;;;;;;0.70;0.60;;;10.40;99.90;;;10.80;100.00;-13939.25;5116092;27;20421;-75
2021/06/01 04:42:49;;;;;;;0.70;0.60;;;10.50;99.90;;;10.96;100.00;-14320.94;5134433;27;20416;-76
2021/06/01 04:45:19;;;;;;;0.70;0.60;;;10.70;99.90;;;11.08;100.00;-15355.03;5133009;27;20440;-76
2021/06/01 04:47:46;;;;;;;0.70;0.60;;;10.80;99.90;;;11.24;100.00;-16706.09;5133179;27;20523;-75
2021/06/01 04:50:16;;;;;;;0.70;0.60;;;11.00;99.90;;;11.49;100.00;-19244.22;5133631;27;20830;-76
2021/06/01 04:52:44;;;;;;;0.70;0.67;;;11.30;99.90;;;11.60;100.00;-20699.78;5134006;27;20417;-75
2021/06/01 04:55:13;;;;;;;0.70;0.60;;;11.40;99.90;;;11.68;100.00;-20999.75;5134373;27;20819;-75
2021/06/01 04:57:42;;;;;;;0.70;0.60;;;11.50;99.90;;;11.77;100.00;-21002.09;5116137;27;20444;-75
2021/06/01 05:00:11;;;;;;;0.70;0.60;;;11.60;99.90;;;12.18;100.00;-21013.16;5129847;27;20456;-75
2021/06/01 05:02:39;;;;;;;0.70;0.60;;;11.90;99.90;;;12.32;100.00;-21017.03;5112271;28;20451;-75
2021/06/01 05:05:09;;;;;;;0.70;0.60;;;12.00;99.90;;;12.80;100.00;-21030.00;5112275;28;20414;-75
2021/06/01 05:07:36;;;;;;;0.70;0.60;;;12.40;99.90;;;12.92;100.00;-21033.31;5113089;27;20443;-75
2021/06/01 05:10:07;;;;;;;0.70;0.60;;;12.60;99.90;;;13.37;100.00;-21045.44;5129941;27;20486;-75
2021/06/01 05:12:35;;;;;;;0.70;0.60;;;13.00;99.90;;;13.56;100.00;-21050.41;5125600;27;20940;-76
2021/06/01 05:15:03;;;;;;;0.70;0.60;;;13.20;99.90;;;13.60;100.00;-21051.50;5108725;28;20473;-76
2021/06/01 05:17:31;;;;;;;0.70;0.60;;;13.20;99.90;;;13.70;100.00;-21054.25;5133014;28;20441;-75
2021/06/01 05:19:59;;;;;;;0.70;0.50;;;13.30;99.90;;;13.74;100.00;-21055.38;5133046;28;20613;-75
2021/06/01 05:22:26;;;;;;;0.70;0.60;;;13.40;99.90;;;13.82;100.00;-21057.56;5134143;27;20412;-75
2021/06/01 05:24:54;;;;;;;0.70;0.60;;;13.50;99.90;;;14.08;100.00;-21064.47;5134098;27;20970;-76
2021/06/01 05:27:23;;;;;;;0.70;0.60;;;13.70;99.90;;;14.20;100.00;-21067.91;5113380;28;20465;-75
2021/06/01 05:29:55;;;;;;;0.70;0.60;;;13.80;99.90;;;14.39;100.00;-21072.84;5120556;28;20492;-73
2021/06/01 05:35:20;;;;;;;0.70;0.60;;;14.30;99.90;;;14.77;100.00;-21083.06;5134745;28;20813;-76
2021/06/01 05:37:53;;;;;;;0.70;0.60;;;14.40;99.90;;;14.89;100.00;-21086.50;5135272;27;20461;-73
2021/06/01 05:40:20;;;;;;;0.70;0.60;;;14.50;99.90;;;14.94;100.00;-21087.84;5130036;28;20508;-74
2021/06/01 05:42:49;;;;;;;0.80;0.60;;;14.60;99.90;;;15.10;100.00;-21092.00;5095281;28;20465;-76
2021/06/01 05:45:18;;;;;;;0.70;0.60;;;14.70;99.90;;;15.13;100.00;-21092.81;5129044;28;20460;-73
2021/06/01 05:47:45;;;;;;;0.80;0.60;;;14.60;99.90;;;15.12;100.00;-21092.69;5132368;28;20486;-73
2021/06/01 05:50:13;;;;;;;0.70;0.60;;;14.70;99.90;;;15.39;100.00;-21099.97;5134621;28;20473;-73
2021/06/01 05:52:40;;;;;;;0.80;0.70;;;15.00;99.90;;;15.53;100.00;-21103.53;5127714;28;20536;-74
2021/06/01 05:55:09;;;;;;;0.70;0.60;;;15.10;99.90;;;15.60;100.00;-21105.47;5131987;28;20492;-73
2021/06/01 05:57:38;;;;;;;0.70;0.60;;;15.10;99.90;;;15.59;100.00;-21105.19;5134024;27;20494;-75
2021/06/01 06:00:09;;;;;;;0.70;0.60;;;15.10;99.90;;;15.77;100.00;-21110.13;5132357;28;20446;-73
2021/06/01 06:02:36;;;;;;;0.70;0.60;;;15.30;99.90;;;15.89;100.00;-21113.44;5114709;28;20482;-73
2021/06/01 06:05:06;;;;;;;0.70;0.60;;;15.50;99.90;;;16.08;100.00;-21118.53;5150291;27;20402;-76
2021/06/01 06:07:35;;;;;;;0.70;0.60;;;15.50;99.90;;;16.19;100.00;-21121.41;5145905;27;20451;-76
2021/06/01 06:10:05;;;;;;;0.70;0.60;;;15.70;99.90;;;16.32;100.00;-21124.97;5117879;28;20418;-76
2021/06/01 06:12:33;;;;;;;0.70;0.60;;;15.80;97.90;;;16.42;100.00;-21127.72;5133788;27;20452;-75
2021/06/01 06:15:01;;;;;;;0.73;0.63;;;16.00;97.80;;;16.56;100.00;-21131.28;5130301;27;20456;-75
2021/06/01 06:17:42;;;;;;;0.70;0.60;;;16.00;96.40;;;16.60;100.00;-21132.53;5120210;27;20827;-76
2021/06/01 06:20:34;;;;;;;0.70;0.60;;;16.00;94.50;;;16.82;100.00;-21138.44;5137264;27;20417;-76
2021/06/01 06:23:02;;;;;;;0.70;0.60;;;16.30;93.60;;;16.86;100.00;-21139.53;5137327;27;20459;-73
2021/06/01 06:25:29;;;;;;;0.70;0.60;;;16.40;92.10;;;16.95;100.00;-21141.88;5138327;27;20814;-75
2021/06/01 06:27:57;;;;;;;0.77;0.63;;;16.40;91.50;;;17.01;100.00;-21143.38;5135606;27;20436;-73
2021/06/01 06:30:25;;;;;;;0.80;0.70;;;16.50;90.60;;;17.15;100.00;-21147.22;5134469;27;20446;-76
2021/06/01 06:32:54;;;;;;;0.70;0.60;;;16.60;88.80;;;17.33;100.00;-21152.16;5136341;27;20925;-73
2021/06/01 06:35:22;;;;;;;0.70;0.60;;;16.80;86.80;;;17.39;100.00;-21153.66;5136316;27;20461;-73
2021/06/01 06:37:51;;;;;;;0.70;0.60;;;17.00;84.80;;;17.51;100.00;-21156.94;5122946;27;20925;-76
2021/06/01 06:40:18;;;;;;;0.70;0.60;;;17.00;82.80;;;17.66;100.00;-21160.94;5122352;27;20425;-76
2021/06/01 06:42:46;;;;;;;0.80;0.80;;;17.10;80.60;;;17.77;100.00;-21163.94;5119088;27;20435;-75
2021/06/01 06:45:17;;;;;;;0.70;0.60;;;17.20;83.30;;;17.88;100.00;-21166.69;5135134;27;20404;-76
2021/06/01 06:50:21;;;;;;;0.80;0.70;;;17.30;74.50;;;18.19;100.00;-21175.03;5131889;27;20516;-75
2021/06/01 06:52:50;;;;;;;0.70;0.60;;;17.60;75.80;;;18.28;100.00;-21177.50;5141006;27;20446;-77
2021/06/01 06:55:18;;;;;;;0.80;0.67;;;17.60;74.30;;;18.40;100.00;-21180.66;5150534;27;20454;-77
2021/06/01 06:57:46;;;;;;;0.70;0.60;;;17.80;74.10;;;18.53;100.00;-21184.22;5127483;27;20808;-77
2021/06/01 07:00:18;;;;;;;0.70;0.60;;;18.00;72.10;;;18.72;100.00;-21189.44;5136819;27;20450;-77
2021/06/01 07:02:46;;;;;;;0.70;0.60;;;18.10;71.40;;;18.86;100.00;-21193.13;5138566;27;20434;-76
2021/06/01 07:05:19;;;;;;;0.80;0.70;;;18.30;71.10;;;18.98;100.00;-21196.25;5119301;28;20414;-76
2021/06/01 07:07:52;;;;;;;0.73;0.70;;;18.40;72.70;;;19.15;100.00;-21200.91;5140305;27;20465;-77
2021/06/01 07:10:22;;;;;;;0.70;0.60;;;18.60;73.70;;;19.22;100.00;-21202.84;5129179;27;20450;-76
2021/06/01 07:12:50;;;;;;;0.80;0.70;;;18.70;67.90;;;19.24;100.00;-21203.38;5151364;27;20411;-77
2021/06/01 07:15:51;;;;;;;0.70;0.60;;;18.80;64.20;;;19.47;100.00;-21209.41;5141641;27;20853;-76
2021/06/01 07:18:19;;;;;;;0.80;0.70;;;18.90;63.40;;;19.47;100.00;-21209.41;5061793;27;20503;-75
2021/06/01 07:20:48;;;;;;;0.73;0.60;;;19.00;63.70;;;19.67;100.00;-21214.88;5148397;27;20456;-76
2021/06/01 07:23:16;;;;;;;0.80;0.70;;;19.20;63.00;;;19.84;100.00;-21219.25;5145475;27;20503;-76
2021/06/01 07:25:44;;;;;;;0.70;0.60;;;19.30;58.40;;;19.94;100.00;-21222.13;5116916;28;20442;-76
2021/06/01 07:28:17;;;;;;;0.70;0.60;;;19.40;59.20;;;19.84;100.00;-21219.38;5136353;27;20503;-77
2021/06/01 07:30:44;;;;;;;0.70;0.60;;;19.30;59.00;;;19.99;100.00;-21223.34;5134850;27;20451;-75
2021/06/01 07:33:14;;;;;;;0.80;0.70;;;19.40;61.40;;;20.39;100.00;-21234.00;5131854;27;20502;-75
2021/06/01 07:35:42;;;;;;;0.80;0.80;;;19.80;56.40;;;20.53;100.00;-21237.81;5118166;28;20477;-75
2021/06/01 07:38:12;;;;;;;0.77;0.60;;;19.90;54.90;;;20.55;100.00;-21238.38;5129069;27;20468;-76
2021/06/01 07:40:40;;;;;;;0.80;0.70;;;20.10;56.90;;;20.65;100.00;-21241.09;5124952;27;20436;-76
2021/06/01 07:43:08;;;;;;;0.80;0.60;;;20.00;55.00;;;20.75;100.00;-21243.81;5115326;28;20945;-77
2021/06/01 07:45:36;;;;;;;0.80;0.60;;;20.20;54.40;;;21.03;100.00;-21251.06;5131658;27;20433;-76
2021/06/01 07:48:05;;;;;;;0.80;0.60;;;20.60;51.20;;;21.48;100.00;-21263.19;5136711;27;20421;-75
2021/06/01 07:50:32;;;;;;;0.80;0.70;;;21.10;53.80;;;21.57;100.00;-21265.53;5118319;27;20445;-76
2021/06/01 07:53:00;;;;;;;0.80;0.70;;;21.00;48.10;;;21.67;100.00;-21268.38;5135514;27;20445;-76
2021/06/01 07:55:29;;;;;;;0.80;0.60;;;21.20;48.80;;;21.88;100.00;-21273.84;5134535;27;21021;-76
2021/06/01 07:57:58;;;;;;;0.80;0.70;;;21.40;46.70;;;22.10;100.00;-21279.81;5134846;27;20467;-76
2021/06/01 08:00:27;;;;;;;0.80;0.80;;;21.50;43.80;;;22.31;100.00;-21285.28;5134342;27;20428;-76
2021/06/01 08:02:55;;;;;;;0.80;0.60;;;21.60;43.90;;;22.32;100.00;-21285.69;5137122;27;20445;-78
2021/06/01 08:05:23;;;;;;;0.80;0.70;;;21.60;41.10;;;22.55;100.00;-21291.81;5147258;27;20476;-76
2021/06/01 08:07:51;;;;;;;0.80;0.60;;;22.00;42.50;;;22.70;100.00;-21295.63;5125686;27;20491;-75
2021/06/01 08:10:21;;;;;;;0.80;0.70;;;21.90;39.90;;;22.82;100.00;-21298.88;5133899;27;20490;-76
2021/06/01 08:12:53;;;;;;;0.80;0.60;;;22.00;38.10;;;22.98;100.00;-21303.25;5136468;27;20747;-75
2021/06/01 08:15:24;;;;;;;0.80;0.67;;;22.20;37.00;;;23.27;100.00;-21310.88;5119049;27;20470;-75
2021/06/01 08:17:55;;;;;;;0.80;0.60;;;22.20;35.20;;;23.33;100.00;-21312.63;5134568;27;20793;-75
2021/06/01 08:23:00;;;;;;;0.80;0.80;;;22.30;35.10;;;23.66;100.00;-21321.34;5134966;27;20430;-77
2021/06/01 08:25:28;;;;;;;0.80;0.60;;;22.80;33.20;;;23.85;100.00;-21326.38;5137546;27;20470;-76
2021/06/01 08:27:57;;;;;;;0.70;0.60;;;22.80;30.70;;;24.18;100.00;-21335.06;5140676;27;20429;-76
2021/06/01 08:30:30;;;;;;;0.70;0.60;;;23.10;29.30;;;24.20;100.00;-21335.59;5134730;27;20437;-76
2021/06/01 08:32:58;;;;;;;0.70;0.60;;;22.80;29.30;;;24.72;100.00;-21349.44;5133876;27;20445;-75
2021/06/01 08:35:26;;;;;;;0.70;0.50;;;23.20;28.10;;;25.44;100.00;-21368.72;5134108;27;20497;-75
2021/06/01 08:37:53;;;;;;;0.90;0.70;;;23.80;26.70;;;25.48;100.00;-21369.81;5119733;27;20510;-75
2021/06/01 08:40:21;;;;;;;0.70;0.50;;;24.20;28.70;;;25.52;100.00;-21370.75;5134973;27;20478;-75
2021/06/01 08:42:51;;;;;;;0.70;0.60;;;23.90;24.10;;;26.43;100.00;-21395.00;5134504;27;20519;-77
2021/06/01 08:45:22;;;;;;;0.70;0.60;;;24.50;23.60;;;26.68;100.00;-21401.50;5132989;27;20440;-77
2021/06/01 08:47:50;;;;;;;0.70;0.60;;;24.60;18.80;;;27.43;100.00;-21421.50;5118925;27;20971;-77
2021/06/01 08:50:18;;;;;;;0.70;0.60;;;24.60;17.50;;;26.99;100.00;-21409.75;5116965;27;20501;-76
2021/06/01 08:52:47;;;;;;;0.70;0.50;;;25.10;19.30;;;27.06;100.00;-21411.50;5133874;27;20479;-78
2021/06/01 08:55:15;;;;;;;0.70;0.47;;;25.20;15.60;;;27.65;100.00;-21427.19;5132919;27;20504;-77
2021/06/01 08:57:44;;;;;;;0.70;0.50;;;25.30;16.40;;;26.94;100.00;-21408.53;5130938;27;20478;-75
2021/06/01 09:00:13;;;;;;;0.70;0.50;;;25.60;17.00;;;27.34;100.00;-21418.94;5132884;27;20444;-75
2021/06/01 09:02:42;;;;;;;0.70;0.50;;;25.70;16.00;;;27.93;99.55;-21434.75;5132938;27;20429;-73
2021/06/01 09:05:14;;;;;;;0.70;0.50;;;26.10;15.60;;;29.24;94.32;-21469.16;5134393;27;20405;-75
2021/06/01 09:21:35;;;;;;;0.70;0.50;;;26.00;7.60;;;28.23;86.66;-21442.56;5133962;28;20427;-76
2021/06/01 09:24:05;;;;;;;0.70;0.50;;;25.60;7.30;;;28.73;89.01;-21455.66;5131051;28;20486;-77
2021/06/01 09:27:04;;;;;;;0.70;0.50;;;26.00;8.20;;;28.70;85.84;-21454.97;5095289;28;20552;-77
2021/06/01 09:29:34;;;;;;;0.70;0.50;;;26.50;7.10;;;29.44;84.71;-21474.53;5104067;28;20535;-76
2021/06/01 09:32:15;;;;;;;0.80;0.50;;;26.70;6.40;;;29.64;88.76;-21479.66;5133066;28;20444;-76
2021/06/01 09:34:50;;;;;;;0.80;0.50;;;27.20;8.10;;;30.16;80.12;-21493.38;5115426;28;20437;-77
2021/06/01 09:37:25;;;;;;;0.80;0.80;;;26.70;2.20;;;30.69;78.87;-21507.50;5119843;28;20542;-79
2021/06/01 09:40:17;;;;;;;0.80;0.50;;;26.30;3.00;;;30.64;79.67;-21506.16;5119724;27;20950;-78
2021/06/01 09:42:47;;;;;;;0.70;0.50;;;26.40;3.60;;;30.62;79.96;-21505.63;5117206;28;20905;-77
2021/06/01 09:45:17;;;;;;;0.73;0.50;;;27.00;4.10;;;29.50;82.69;-21476.00;5110484;28;20452;-77
2021/06/01 09:47:52;;;;;;;0.70;0.50;;;26.60;5.50;;;28.54;82.24;-21450.81;5117892;27;20433;-75
2021/06/01 09:52:59;;;;;;;0.77;0.50;;;27.40;2.60;;;31.02;78.08;-21516.25;5138209;27;20448;-78
2021/06/01 09:55:36;;;;;;;0.80;0.50;;;27.00;1.00;;;31.20;80.04;-21520.81;5116722;27;20482;-77
2021/06/01 09:58:10;;;;;;;0.80;0.50;;;27.40;3.20;;;31.21;77.69;-21521.22;5134687;27;20455;-78
2021/06/01 10:00:40;;;;;;;0.80;0.50;;;27.40;2.30;;;31.01;79.18;-21515.84;5131769;27;20485;-78
2021/06/01 10:03:15;;;;;;;1.00;0.60;;;27.00;3.70;;;30.83;81.27;-21511.13;5137392;27;21010;-77
2021/06/01 10:05:48;;;;;;;0.80;0.50;;;27.60;4.90;;;30.85;77.95;-21511.53;5120152;27;20472;-79
2021/06/01 10:08:17;;;;;;;0.80;0.50;;;27.40;2.50;;;30.89;78.39;-21512.75;5119703;27;20513;-79
2021/06/01 10:10:51;;;;;;;0.80;0.50;;;27.20;2.60;;;31.28;78.83;-21522.94;5119788;27;20479;-77
2021/06/01 10:13:20;;;;;;;0.80;0.50;;;27.40;2.10;;;30.59;76.89;-21504.69;5137009;27;20412;-77
2021/06/01 10:15:50;;;;;;;0.80;0.50;;;27.90;1.50;;;29.40;75.58;-21473.44;5133361;27;20456;-78
2021/06/01 10:18:19;;;;;;;0.80;0.50;;;27.50;1.00;;;30.09;76.44;-21491.63;5120821;27;20814;-78
2021/06/01 10:20:50;;;;;;;0.80;0.50;;;27.30;1.00;;;30.14;77.89;-21492.84;5133523;27;20436;-79
2021/06/01 10:23:22;;;;;;;0.80;0.50;;;27.60;1.00;;;29.76;78.69;-21483.03;5119746;27;20460;-78
2021/06/01 10:25:50;;;;;;;0.80;0.50;;;27.70;1.00;;;29.18;77.15;-21467.66;5138091;27;20495;-78
2021/06/01 10:31:00;;;;;;;0.80;0.50;;;27.30;1.00;;;30.19;81.87;-21494.31;5136100;27;20450;-79
2021/06/01 10:33:38;;;;;;;0.80;0.50;;;28.00;2.10;;;31.62;75.39;-21531.81;5117077;28;20479;-79
2021/06/01 10:53:16;;;;;;;0.80;0.50;;;28.40;2.00;;;30.44;75.92;-21500.78;5132284;27;20475;-78
2021/06/01 10:56:03;;;;;;;1.93;0.80;;;28.80;1.00;;;30.72;75.37;-21508.16;5135944;27;20759;-78
2021/06/01 10:59:06;;;;;;;0.80;0.50;;;28.10;1.00;;;31.32;74.91;-21524.03;5135247;27;20416;-80
2021/06/01 11:01:56;;;;;;;0.80;0.50;;;28.30;1.00;;;30.62;73.71;-21505.47;5135907;27;20409;-81
2021/06/01 11:04:31;;;;;;;0.80;0.50;;;28.20;1.00;;;30.14;74.28;-21492.97;5118315;27;20462;-79
2021/06/01 11:09:48;;;;;;;0.80;0.50;;;27.90;1.00;;;29.60;75.61;-21478.84;5134801;27;20444;-79
2021/06/01 11:12:46;;;;;;;0.70;0.50;;;28.00;1.00;;;30.36;80.67;-21498.75;5135689;27;20515;-78
2021/06/01 11:15:33;;;;;;;0.80;0.50;;;28.30;1.10;;;31.40;72.92;-21526.03;5105667;27;20437;-79
2021/06/01 11:18:25;;;;;;;0.80;0.50;;;28.70;1.00;;;31.83;72.98;-21537.31;5116076;27;20952;-81
2021/06/01 11:33:11;;;;;;;0.77;0.50;;;28.80;1.00;;;29.92;75.50;-21487.06;5130909;27;20860;-75